createdAt,value
2018-12-16T00:00:23.529Z,7.40
2018-12-16T00:02:29.578Z,9.17
2018-12-16T00:04:36.306Z,10.03
2018-12-16T00:06:45.222Z,9.47
2018-12-16T00:08:52.361Z,9.60
2018-12-16T00:10:58.642Z,9.70
2018-12-16T00:13:05.196Z,8.63
2018-12-16T00:15:12.494Z,8.90
2018-12-16T00:17:20.330Z,9.20
2018-12-16T00:19:26.477Z,10.53
2018-12-16T00:21:32.613Z,9.87
2018-12-16T00:23:39.563Z,10.50
2018-12-16T00:25:46.387Z,11.60
2018-12-16T00:27:52.817Z,11.20
2018-12-16T00:29:58.591Z,8.13
2018-12-16T00:32:04.459Z,10.57
2018-12-16T00:34:10.647Z,12.43
2018-12-16T00:36:16.365Z,11.93
2018-12-16T00:38:23.594Z,11.80
2018-12-16T00:40:30.490Z,11.53
2018-12-16T00:42:36.361Z,11.27
2018-12-16T00:44:40.823Z,12.60
2018-12-16T00:46:46.892Z,11.10
2018-12-16T00:48:53.524Z,10.70
2018-12-16T00:51:01.021Z,11.90
2018-12-16T00:53:06.893Z,10.00
2018-12-16T00:55:13.481Z,11.40
2018-12-16T00:57:20.716Z,10.77
2018-12-16T00:59:27.339Z,12.43
2018-12-16T01:01:32.711Z,10.03
2018-12-16T01:03:40.347Z,10.63
2018-12-16T01:05:47.813Z,12.67
2018-12-16T01:07:54.763Z,12.13
2018-12-16T01:10:00.008Z,10.70
2018-12-16T01:12:05.689Z,13.10
2018-12-16T01:14:12.819Z,11.07
2018-12-16T01:16:18.824Z,10.37
2018-12-16T01:18:25.219Z,12.13
2018-12-16T01:20:31.401Z,12.03
2018-12-16T01:22:43.398Z,11.17
2018-12-16T01:24:46.146Z,11.10
2018-12-16T01:26:52.018Z,11.23
2018-12-16T01:28:58.667Z,12.00
2018-12-16T01:31:03.886Z,11.73
2018-12-16T01:33:10.602Z,11.17
2018-12-16T01:35:19.893Z,11.90
2018-12-16T01:37:26.480Z,12.20
2018-12-16T01:39:32.293Z,10.73
2018-12-16T01:41:38.234Z,11.57
2018-12-16T01:43:44.981Z,11.30
2018-12-16T01:45:52.137Z,11.57
2018-12-16T01:47:59.945Z,12.23
2018-12-16T01:50:06.026Z,11.57
2018-12-16T01:52:13.163Z,11.10
2018-12-16T01:54:19.917Z,11.40
2018-12-16T01:56:25.836Z,12.47
2018-12-16T01:58:32.816Z,11.17
2018-12-16T02:00:39.446Z,10.07
2018-12-16T02:02:44.249Z,11.47
2018-12-16T02:04:50.104Z,11.63
2018-12-16T02:06:56.270Z,11.97
2018-12-16T02:09:03.118Z,12.27
2018-12-16T02:11:09.205Z,11.80
2018-12-16T02:13:15.408Z,12.57
2018-12-16T02:15:27.309Z,11.30
2018-12-16T02:17:34.539Z,11.93
2018-12-16T02:19:40.337Z,11.07
2018-12-16T02:21:51.199Z,11.77
2018-12-16T02:23:56.483Z,11.67
2018-12-16T02:26:02.891Z,10.53
2018-12-16T02:28:09.405Z,11.83
2018-12-16T02:30:19.722Z,11.33
2018-12-16T02:32:25.057Z,11.10
2018-12-16T02:34:31.273Z,10.23
2018-12-16T02:36:39.053Z,10.83
2018-12-16T02:38:46.805Z,10.70
2018-12-16T02:40:53.172Z,10.63
2018-12-16T02:42:59.402Z,10.70
2018-12-16T02:45:07.419Z,9.90
2018-12-16T02:47:16.448Z,9.80
2018-12-16T02:49:23.939Z,9.23
2018-12-16T02:51:30.283Z,9.37
2018-12-16T02:53:37.591Z,9.93
2018-12-16T02:55:44.494Z,9.10
2018-12-16T02:57:50.667Z,10.23
2018-12-16T02:59:56.554Z,9.20
2018-12-16T03:02:02.762Z,10.70
2018-12-16T03:04:08.751Z,9.67
2018-12-16T03:06:13.477Z,8.37
2018-12-16T03:08:19.762Z,8.00
2018-12-16T03:10:25.110Z,8.70
2018-12-16T03:12:32.554Z,6.30
2018-12-16T03:14:38.461Z,7.67
2018-12-16T03:16:49.776Z,8.10
2018-12-16T03:18:55.626Z,5.83
2018-12-16T03:21:01.563Z,7.67
2018-12-16T03:23:12.307Z,7.27
2018-12-16T03:25:15.882Z,5.83
2018-12-16T03:27:22.313Z,6.43
2018-12-16T03:29:28.879Z,9.13
2018-12-16T03:31:35.781Z,8.27
2018-12-16T03:33:41.721Z,7.93
2018-12-16T03:35:47.770Z,6.40
2018-12-16T03:37:54.579Z,7.47
2018-12-16T03:40:01.030Z,7.73
2018-12-16T03:42:05.537Z,6.03
2018-12-16T03:44:10.958Z,7.57
2018-12-16T03:46:17.868Z,8.43
2018-12-16T03:48:23.914Z,5.53
2018-12-16T03:50:30.480Z,6.43
2018-12-16T03:52:37.710Z,5.63
2018-12-16T03:54:43.709Z,6.37
2018-12-16T03:56:50.614Z,6.67
2018-12-16T03:59:07.542Z,6.47
2018-12-16T04:01:14.792Z,7.97
2018-12-16T04:03:20.939Z,4.33
2018-12-16T04:05:26.789Z,6.90
2018-12-16T04:07:34.745Z,8.13
2018-12-16T04:09:39.099Z,7.93
2018-12-16T04:11:43.942Z,5.77
2018-12-16T04:13:50.022Z,8.57
2018-12-16T04:15:56.526Z,8.60
2018-12-16T04:18:06.038Z,8.97
2018-12-16T04:20:13.514Z,9.20
2018-12-16T04:22:19.420Z,8.13
2018-12-16T04:24:27.018Z,5.30
2018-12-16T04:26:34.220Z,8.63
2018-12-16T04:28:40.032Z,7.17
2018-12-16T04:30:47.041Z,9.93
2018-12-16T04:32:53.993Z,8.13
2018-12-16T04:35:01.739Z,8.37
2018-12-16T04:37:07.483Z,9.40
2018-12-16T04:39:13.225Z,5.73
2018-12-16T04:41:19.075Z,8.20
2018-12-16T04:43:26.055Z,4.87
2018-12-16T04:45:34.861Z,7.63
2018-12-16T04:47:41.114Z,7.77
2018-12-16T04:49:47.006Z,7.63
2018-12-16T04:51:54.066Z,5.77
2018-12-16T04:54:00.814Z,7.73
2018-12-16T04:56:10.057Z,6.80
2018-12-16T04:58:16.874Z,7.80
2018-12-16T05:00:23.114Z,6.30
2018-12-16T05:02:30.649Z,8.27
2018-12-16T05:04:36.261Z,8.27
2018-12-16T05:06:41.962Z,8.70
2018-12-16T05:08:48.665Z,8.90
2018-12-16T05:10:55.074Z,8.73
2018-12-16T05:13:01.058Z,9.57
2018-12-16T05:15:07.367Z,8.20
2018-12-16T05:17:14.997Z,9.17
2018-12-16T05:19:20.938Z,8.13
2018-12-16T05:21:27.730Z,9.13
2018-12-16T05:23:33.185Z,9.57
2018-12-16T05:25:37.525Z,9.23
2018-12-16T05:27:44.202Z,8.53
2018-12-16T05:29:51.397Z,9.63
2018-12-16T05:31:58.068Z,9.10
2018-12-16T05:34:05.333Z,7.33
2018-12-16T05:36:12.493Z,8.27
2018-12-16T05:38:19.149Z,10.43
2018-12-16T05:40:25.830Z,9.87
2018-12-16T05:42:32.747Z,9.70
2018-12-16T05:44:38.709Z,7.30
2018-12-16T05:46:45.225Z,10.57
2018-12-16T05:48:50.945Z,7.90
2018-12-16T05:50:57.559Z,9.97
2018-12-16T05:53:03.533Z,9.20
2018-12-16T05:55:10.986Z,9.87
2018-12-16T05:57:18.346Z,9.33
2018-12-16T05:59:25.714Z,9.17
2018-12-16T06:01:31.606Z,10.87
2018-12-16T06:03:39.273Z,10.40
2018-12-16T06:05:46.026Z,8.57
2018-12-16T06:07:52.105Z,9.47
2018-12-16T06:09:59.054Z,9.50
2018-12-16T06:12:06.260Z,9.57
2018-12-16T06:14:12.938Z,10.33
2018-12-16T06:16:20.046Z,10.53
2018-12-16T06:18:27.371Z,10.90
2018-12-16T06:20:34.218Z,10.50
2018-12-16T06:22:40.746Z,9.93
2018-12-16T06:24:48.328Z,10.00
2018-12-16T06:26:54.700Z,10.07
2018-12-16T06:29:01.001Z,9.97
2018-12-16T06:31:07.883Z,10.37
2018-12-16T06:33:13.868Z,9.47
2018-12-16T06:35:20.150Z,8.57
2018-12-16T06:37:26.326Z,8.83
2018-12-16T06:39:30.874Z,9.57
2018-12-16T06:41:35.379Z,8.70
2018-12-16T06:43:42.602Z,8.33
2018-12-16T06:45:49.865Z,7.63
2018-12-16T06:47:56.614Z,7.63
2018-12-16T06:50:03.722Z,7.77
2018-12-16T06:52:10.923Z,8.50
2018-12-16T06:54:18.826Z,7.47
2018-12-16T06:56:26.505Z,8.17
2018-12-16T06:58:33.577Z,7.57
2018-12-16T07:00:40.517Z,7.37
2018-12-16T07:02:48.659Z,7.57
2018-12-16T07:04:55.553Z,7.60
2018-12-16T07:07:02.686Z,8.47
2018-12-16T07:09:09.993Z,6.80
2018-12-16T07:11:15.950Z,6.77
2018-12-16T07:13:24.858Z,7.53
2018-12-16T07:15:37.085Z,6.57
2018-12-16T07:17:43.054Z,7.77
2018-12-16T07:19:48.713Z,6.73
2018-12-16T07:21:55.815Z,6.10
2018-12-16T07:24:09.046Z,6.53
2018-12-16T07:26:10.677Z,6.37
2018-12-16T07:28:16.675Z,6.07
2018-12-16T07:30:21.893Z,6.77
2018-12-16T07:32:26.375Z,5.97
2018-12-16T07:34:31.762Z,5.83
2018-12-16T07:36:38.914Z,5.37
2018-12-16T07:38:44.810Z,6.33
2018-12-16T07:40:52.542Z,6.17
2018-12-16T07:42:58.730Z,6.03
2018-12-16T07:45:05.066Z,5.93
2018-12-16T07:47:11.960Z,6.00
2018-12-16T07:49:18.441Z,6.17
2018-12-16T07:51:25.606Z,6.23
2018-12-16T07:53:32.460Z,6.33
2018-12-16T07:55:39.495Z,6.90
2018-12-16T07:57:45.318Z,5.33
2018-12-16T07:59:51.345Z,6.60
2018-12-16T08:01:56.274Z,5.73
2018-12-16T08:04:02.082Z,6.13
2018-12-16T08:06:07.788Z,5.83
2018-12-16T08:08:15.022Z,5.83
2018-12-16T08:10:20.845Z,6.13
2018-12-16T08:12:26.861Z,6.00
2018-12-16T08:14:32.717Z,6.37
2018-12-16T08:16:38.969Z,6.63
2018-12-16T08:18:44.469Z,6.67
2018-12-16T08:20:51.002Z,6.60
2018-12-16T08:23:00.734Z,7.67
2018-12-16T08:25:07.374Z,7.03
2018-12-16T08:27:11.606Z,6.87
2018-12-16T08:29:21.450Z,6.40
2018-12-16T08:31:28.613Z,7.40
2018-12-16T08:33:35.234Z,7.37
2018-12-16T08:35:41.546Z,4.73
2018-12-16T08:37:48.137Z,6.17
2018-12-16T08:39:54.841Z,6.13
2018-12-16T08:42:02.296Z,6.63
2018-12-16T08:44:10.832Z,7.37
2018-12-16T08:46:16.463Z,5.83
2018-12-16T08:48:20.433Z,7.40
2018-12-16T08:50:27.051Z,3.83
2018-12-16T08:52:33.418Z,7.93
2018-12-16T08:54:44.444Z,7.90
2018-12-16T08:56:50.361Z,6.50
2018-12-16T08:58:56.362Z,7.80
2018-12-16T09:01:02.204Z,7.43
2018-12-16T09:03:12.138Z,7.20
2018-12-16T09:05:20.111Z,8.10
2018-12-16T09:07:26.860Z,6.93
2018-12-16T09:09:33.577Z,7.17
2018-12-16T09:11:40.286Z,8.60
2018-12-16T09:13:45.613Z,7.90
2018-12-16T09:15:52.530Z,9.23
2018-12-16T09:17:58.806Z,6.97
2018-12-16T09:20:05.638Z,8.53
2018-12-16T09:22:12.478Z,7.93
2018-12-16T09:24:18.480Z,10.57
2018-12-16T09:26:23.189Z,10.57
2018-12-16T09:28:29.390Z,8.43
2018-12-16T09:30:35.642Z,8.13
2018-12-16T09:32:41.655Z,9.17
2018-12-16T09:34:50.208Z,9.57
2018-12-16T09:36:56.754Z,9.33
2018-12-16T09:39:03.107Z,9.03
2018-12-16T09:41:09.833Z,9.60
2018-12-16T09:43:14.785Z,8.27
2018-12-16T09:45:21.371Z,9.43
2018-12-16T09:47:27.430Z,9.03
2018-12-16T09:49:31.801Z,8.10
2018-12-16T09:51:37.805Z,9.20
2018-12-16T09:53:43.950Z,10.03
2018-12-16T09:55:49.837Z,11.17
2018-12-16T09:57:53.794Z,9.27
2018-12-16T09:59:57.807Z,10.13
2018-12-16T10:02:02.374Z,10.13
2018-12-16T10:04:09.413Z,10.63
2018-12-16T10:06:16.233Z,9.47
2018-12-16T10:08:23.872Z,8.53
2018-12-16T10:10:30.497Z,10.27
2018-12-16T10:12:37.458Z,9.83
2018-12-16T10:14:41.890Z,10.40
2018-12-16T10:16:45.954Z,11.30
2018-12-16T10:18:50.702Z,10.87
2018-12-16T10:20:54.618Z,11.10
2018-12-16T10:23:02.610Z,10.50
2018-12-16T10:25:10.378Z,10.90
2018-12-16T10:27:16.522Z,10.47
2018-12-16T10:29:22.826Z,11.00
2018-12-16T10:31:27.152Z,7.27
2018-12-16T10:33:31.818Z,10.10
2018-12-16T10:35:36.554Z,9.67
2018-12-16T10:37:41.517Z,12.23
2018-12-16T10:39:48.137Z,12.10
2018-12-16T10:41:52.190Z,11.10
2018-12-16T10:43:57.149Z,12.83
2018-12-16T10:46:03.466Z,11.80
2018-12-16T10:48:11.314Z,11.50
2018-12-16T10:50:21.009Z,11.20
2018-12-16T10:52:31.854Z,11.77
2018-12-16T10:54:37.954Z,12.50
2018-12-16T10:56:43.688Z,11.27
2018-12-16T10:58:50.224Z,12.33
2018-12-16T11:01:02.071Z,11.53
2018-12-16T11:03:07.704Z,12.83
2018-12-16T11:05:15.677Z,12.20
2018-12-16T11:07:26.025Z,9.70
2018-12-16T11:09:32.721Z,11.00
2018-12-16T11:11:39.754Z,11.80
2018-12-16T11:13:51.250Z,10.73
2018-12-16T11:15:57.083Z,12.23
2018-12-16T11:18:03.350Z,11.67
2018-12-16T11:20:09.973Z,12.47
2018-12-16T11:22:19.310Z,11.43
2018-12-16T11:24:24.970Z,12.77
2018-12-16T11:26:30.686Z,11.33
2018-12-16T11:28:37.045Z,11.33
2018-12-16T11:30:45.062Z,11.10
2018-12-16T11:32:53.090Z,12.40
2018-12-16T11:34:59.127Z,11.90
2018-12-16T11:37:05.943Z,11.43
2018-12-16T11:39:12.321Z,11.60
2018-12-16T11:41:18.292Z,12.03
2018-12-16T11:43:28.989Z,12.63
2018-12-16T11:45:35.274Z,12.73
2018-12-16T11:47:42.795Z,10.17
2018-12-16T11:49:50.218Z,13.07
2018-12-16T11:51:56.396Z,11.43
2018-12-16T11:54:02.861Z,10.30
2018-12-16T11:56:09.354Z,11.17
2018-12-16T11:58:14.095Z,11.50
2018-12-16T12:00:18.179Z,11.30
2018-12-16T12:02:32.644Z,11.20
2018-12-16T12:04:35.306Z,12.00
2018-12-16T12:06:42.665Z,9.63
2018-12-16T12:08:51.183Z,11.20
2018-12-16T12:10:57.574Z,10.87
2018-12-16T12:13:05.126Z,8.97
2018-12-16T12:15:11.348Z,10.70
2018-12-16T12:17:17.993Z,10.70
2018-12-16T12:19:24.319Z,10.00
2018-12-16T12:21:31.105Z,10.90
2018-12-16T12:23:37.290Z,11.20
2018-12-16T12:25:44.230Z,11.97
2018-12-16T12:27:51.438Z,10.13
2018-12-16T12:29:57.515Z,10.80
2018-12-16T12:32:03.491Z,10.57
2018-12-16T12:34:09.241Z,10.17
2018-12-16T12:36:16.976Z,10.57
2018-12-16T12:38:24.619Z,10.67
2018-12-16T12:40:31.787Z,10.87
2018-12-16T12:42:38.397Z,11.37
2018-12-16T12:44:46.281Z,12.10
2018-12-16T12:46:51.306Z,11.73
2018-12-16T12:48:56.650Z,11.27
2018-12-16T12:51:01.522Z,11.13
2018-12-16T12:53:06.455Z,11.97
2018-12-16T12:55:13.446Z,10.77
2018-12-16T12:57:19.550Z,11.57
2018-12-16T12:59:26.346Z,13.23
2018-12-16T13:01:32.849Z,10.23
2018-12-16T13:03:37.875Z,12.73
2018-12-16T13:05:43.790Z,11.60
2018-12-16T13:07:49.935Z,12.60
2018-12-16T13:09:56.427Z,11.33
2018-12-16T13:12:03.306Z,12.03
2018-12-16T13:14:11.659Z,12.10
2018-12-16T13:16:17.645Z,12.50
2018-12-16T13:18:24.870Z,12.90
2018-12-16T13:20:30.509Z,13.03
2018-12-16T13:22:35.041Z,13.20
2018-12-16T13:24:50.060Z,12.83
2018-12-16T13:26:55.826Z,13.67
2018-12-16T13:29:03.082Z,13.33
2018-12-16T13:31:09.175Z,12.47
2018-12-16T13:33:15.629Z,13.07
2018-12-16T13:35:19.936Z,11.13
2018-12-16T13:37:24.081Z,13.53
2018-12-16T13:39:32.458Z,11.57
2018-12-16T13:41:40.140Z,11.67
2018-12-16T13:43:47.946Z,11.70
2018-12-16T13:45:55.487Z,13.57
2018-12-16T13:48:01.989Z,13.00
2018-12-16T13:50:15.538Z,13.63
2018-12-16T13:52:21.030Z,12.27
2018-12-16T13:54:27.684Z,12.60
2018-12-16T13:56:35.082Z,12.23
2018-12-16T13:58:45.110Z,13.43
2018-12-16T14:00:50.798Z,12.50
2018-12-16T14:02:57.117Z,12.87
2018-12-16T14:05:03.372Z,12.23
2018-12-16T14:07:11.118Z,11.40
2018-12-16T14:09:19.886Z,12.33
2018-12-16T14:11:24.282Z,12.23
2018-12-16T14:13:30.225Z,12.43
2018-12-16T14:15:37.364Z,12.03
2018-12-16T14:17:46.590Z,12.10
2018-12-16T14:19:52.832Z,12.63
2018-12-16T14:21:59.850Z,13.17
2018-12-16T14:24:06.862Z,13.13
2018-12-16T14:26:13.738Z,12.23
2018-12-16T14:28:21.037Z,11.10
2018-12-16T14:30:26.700Z,12.83
2018-12-16T14:32:32.523Z,12.90
2018-12-16T14:34:38.323Z,12.37
2018-12-16T14:36:44.539Z,10.97
2018-12-16T14:38:49.347Z,12.33
2018-12-16T14:40:54.205Z,10.67
2018-12-16T14:42:59.817Z,12.10
2018-12-16T14:45:06.533Z,11.77
2018-12-16T14:47:11.734Z,11.17
2018-12-16T14:49:16.450Z,11.70
2018-12-16T14:51:22.256Z,11.93
2018-12-16T14:53:29.646Z,12.37
2018-12-16T14:55:36.492Z,12.60
2018-12-16T14:57:43.466Z,12.73
2018-12-16T14:59:50.126Z,11.67
2018-12-16T15:01:56.694Z,12.17
2018-12-16T15:04:02.726Z,13.07
2018-12-16T15:06:08.797Z,14.37
2018-12-16T15:08:16.588Z,13.40
2018-12-16T15:10:21.794Z,12.17
2018-12-16T15:12:27.083Z,12.57
2018-12-16T15:14:32.793Z,12.40
2018-12-16T15:16:38.106Z,12.40
2018-12-16T15:18:44.427Z,13.77
2018-12-16T15:20:50.424Z,13.27
2018-12-16T15:22:57.212Z,12.93
2018-12-16T15:25:03.512Z,14.70
2018-12-16T15:27:09.813Z,11.37
2018-12-16T15:29:15.435Z,13.50
2018-12-16T15:31:21.198Z,12.20
2018-12-16T15:35:39.502Z,12.27
2018-12-16T15:37:50.167Z,12.50
2018-12-16T15:39:55.720Z,12.63
2018-12-16T15:42:01.613Z,12.83
2018-12-16T15:44:05.954Z,14.47
2018-12-16T15:46:13.180Z,13.10
2018-12-16T15:48:20.381Z,13.77
2018-12-16T15:50:27.655Z,13.90
2018-12-16T15:52:35.068Z,14.13
2018-12-16T15:54:41.333Z,13.43
2018-12-16T15:56:48.841Z,11.77
2018-12-16T15:58:55.886Z,13.83
2018-12-16T16:01:02.633Z,11.63
2018-12-16T16:03:09.749Z,14.40
2018-12-16T16:05:14.575Z,13.73
2018-12-16T16:07:19.765Z,15.17
2018-12-16T16:09:24.161Z,14.10
2018-12-16T16:11:31.763Z,13.13
2018-12-16T16:13:37.743Z,15.30
2018-12-16T16:15:47.274Z,15.00
2018-12-16T16:17:54.159Z,12.30
2018-12-16T16:20:01.290Z,14.07
2018-12-16T16:22:10.686Z,13.60
2018-12-16T16:24:16.338Z,14.10
2018-12-16T16:26:22.607Z,12.63
2018-12-16T16:28:30.389Z,15.27
2018-12-16T16:30:40.514Z,14.80
2018-12-16T16:32:44.822Z,12.93
2018-12-16T16:34:49.881Z,13.87
2018-12-16T16:36:55.678Z,13.77
2018-12-16T16:39:01.182Z,12.87
2018-12-16T16:41:06.257Z,15.30
2018-12-16T16:43:13.077Z,13.13
2018-12-16T16:45:20.042Z,14.07
2018-12-16T16:47:25.946Z,15.30
2018-12-16T16:49:31.917Z,14.70
2018-12-16T16:51:37.477Z,14.47
2018-12-16T16:53:41.601Z,15.20
2018-12-16T16:55:46.966Z,13.63
2018-12-16T16:57:51.153Z,14.73
2018-12-16T16:59:58.050Z,15.13
2018-12-16T17:02:03.778Z,16.10
2018-12-16T17:04:10.955Z,13.67
2018-12-16T17:06:17.715Z,15.07
2018-12-16T17:08:23.158Z,14.37
2018-12-16T17:10:30.774Z,15.87
2018-12-16T17:12:36.885Z,15.87
2018-12-16T17:14:42.253Z,16.43
2018-12-16T17:16:55.182Z,15.23
2018-12-16T17:19:02.235Z,15.70
2018-12-16T17:21:08.779Z,15.63
2018-12-16T17:23:14.800Z,16.23
2018-12-16T17:25:21.643Z,15.47
2018-12-16T17:27:28.285Z,15.33
2018-12-16T17:29:34.242Z,15.37
2018-12-16T17:31:41.118Z,15.83
2018-12-16T17:33:47.946Z,17.30
2018-12-16T17:35:55.883Z,11.97
2018-12-16T17:38:01.776Z,13.27
2018-12-16T17:40:08.596Z,16.93
2018-12-16T17:42:14.645Z,14.73
2018-12-16T17:44:21.034Z,15.40
2018-12-16T17:46:27.034Z,16.87
2018-12-16T17:48:33.935Z,14.90
2018-12-16T17:50:40.873Z,15.20
2018-12-16T17:52:47.185Z,16.17
2018-12-16T17:54:54.123Z,15.67
2018-12-16T17:57:01.324Z,14.60
2018-12-16T17:59:07.190Z,13.97
2018-12-16T18:01:14.318Z,16.40
2018-12-16T18:03:20.613Z,14.83
2018-12-16T18:05:27.082Z,15.70
2018-12-16T18:07:33.709Z,14.47
2018-12-16T18:09:40.172Z,17.00
2018-12-16T18:11:51.567Z,12.83
2018-12-16T18:13:57.751Z,15.37
2018-12-16T18:16:04.458Z,15.70
2018-12-16T18:18:10.564Z,14.23
2018-12-16T18:20:17.330Z,16.20
2018-12-16T18:22:23.625Z,13.87
2018-12-16T18:24:30.121Z,16.27
2018-12-16T18:26:36.596Z,16.57
2018-12-16T18:28:42.609Z,16.13
2018-12-16T18:30:49.559Z,16.50
2018-12-16T18:32:56.842Z,13.53
2018-12-16T18:35:03.178Z,16.77
2018-12-16T18:37:11.468Z,16.97
2018-12-16T18:39:18.570Z,15.87
2018-12-16T18:41:25.010Z,15.97
2018-12-16T18:43:36.523Z,16.23
2018-12-16T18:45:43.015Z,14.83
2018-12-16T18:47:49.814Z,16.97
2018-12-16T18:49:56.689Z,15.60
2018-12-16T18:52:02.371Z,16.37
2018-12-16T18:54:11.809Z,14.90
2018-12-16T18:56:16.797Z,14.97
2018-12-16T18:58:23.402Z,15.47
2018-12-16T19:00:28.521Z,15.00
2018-12-16T19:02:33.001Z,14.63
2018-12-16T19:04:37.743Z,15.03
2018-12-16T19:06:43.498Z,15.40
2018-12-16T19:08:50.742Z,15.67
2018-12-16T19:10:56.066Z,15.77
2018-12-16T19:13:03.789Z,15.40
2018-12-16T19:15:10.506Z,15.57
2018-12-16T19:17:16.714Z,14.77
2018-12-16T19:19:23.025Z,15.50
2018-12-16T19:21:29.710Z,14.43
2018-12-16T19:23:34.085Z,15.17
2018-12-16T19:25:42.304Z,15.47
2018-12-16T19:27:48.845Z,14.20
2018-12-16T19:29:54.277Z,13.77
2018-12-16T19:32:00.078Z,14.60
2018-12-16T19:34:06.478Z,13.90
2018-12-16T19:36:13.831Z,14.30
2018-12-16T19:38:21.855Z,14.27
2018-12-16T19:40:29.386Z,14.50
2018-12-16T19:42:38.281Z,14.93
2018-12-16T19:44:44.619Z,14.33
2018-12-16T19:46:52.138Z,14.13
2018-12-16T19:48:58.890Z,14.03
2018-12-16T19:51:04.943Z,13.90
2018-12-16T19:53:11.663Z,14.77
2018-12-16T19:55:17.465Z,15.00
2018-12-16T19:57:22.139Z,14.03
2018-12-16T19:59:28.110Z,14.70
2018-12-16T20:01:35.310Z,13.57
2018-12-16T20:03:45.174Z,14.23
2018-12-16T20:05:56.924Z,13.40
2018-12-16T20:08:07.538Z,13.57
2018-12-16T20:10:16.344Z,14.17
2018-12-16T20:12:23.082Z,14.13
2018-12-16T20:14:30.121Z,15.30
2018-12-16T20:16:37.921Z,14.10
2018-12-16T20:18:48.193Z,15.10
2018-12-16T20:20:53.204Z,14.87
2018-12-16T20:22:58.262Z,14.97
2018-12-16T20:25:02.820Z,14.23
2018-12-16T20:27:11.998Z,14.80
2018-12-16T20:29:15.362Z,15.40
2018-12-16T20:31:21.339Z,14.60
2018-12-16T20:33:26.962Z,15.57
2018-12-16T20:35:34.562Z,14.73
2018-12-16T20:37:42.442Z,15.27
2018-12-16T20:39:50.107Z,14.67
2018-12-16T20:41:55.658Z,17.23
2018-12-16T20:44:03.131Z,17.83
2018-12-16T20:46:09.480Z,18.43
2018-12-16T20:48:20.489Z,17.37
2018-12-16T20:50:28.139Z,17.67
2018-12-16T20:52:35.549Z,16.77
2018-12-16T20:54:46.817Z,16.57
2018-12-16T20:56:57.248Z,16.20
2018-12-16T20:59:05.932Z,14.97
2018-12-16T21:01:11.762Z,15.33
2018-12-16T21:03:18.121Z,14.63
2018-12-16T21:05:24.562Z,13.77
2018-12-16T21:07:30.254Z,15.17
2018-12-16T21:09:37.790Z,14.53
2018-12-16T21:11:50.398Z,15.07
2018-12-16T21:14:01.320Z,15.50
2018-12-16T21:16:12.925Z,15.13
2018-12-16T21:18:27.767Z,13.97
2018-12-16T21:20:41.365Z,15.73
2018-12-16T21:22:48.303Z,14.30
2018-12-16T21:24:54.861Z,14.37
2018-12-16T21:27:02.539Z,15.07
2018-12-16T21:29:10.639Z,13.50
2018-12-16T21:31:16.644Z,13.83
2018-12-16T21:33:21.829Z,13.03
2018-12-16T21:35:29.778Z,13.90
2018-12-16T21:37:38.443Z,13.43
2018-12-16T21:39:44.593Z,13.23
2018-12-16T21:48:25.729Z,15.03
2018-12-16T21:50:31.914Z,13.53
2018-12-16T21:52:39.276Z,14.17
2018-12-16T21:54:52.007Z,15.33
2018-12-16T21:57:01.997Z,14.40
2018-12-16T21:59:10.072Z,13.07
2018-12-16T22:01:18.853Z,14.70
2018-12-16T22:03:24.269Z,14.40
2018-12-16T22:07:47.017Z,14.07
2018-12-16T22:09:52.933Z,13.57
2018-12-16T22:11:58.834Z,13.73
2018-12-16T22:14:04.521Z,13.87
2018-12-16T22:16:09.894Z,13.60
2018-12-16T22:18:16.126Z,14.70
2018-12-16T22:20:23.705Z,13.33
2018-12-16T22:22:30.318Z,13.93
2018-12-16T22:24:37.801Z,14.67
2018-12-16T22:26:44.053Z,13.60
2018-12-16T22:28:52.930Z,14.40
2018-12-16T22:30:58.858Z,13.80
2018-12-16T22:33:06.569Z,12.77
2018-12-16T22:35:13.042Z,13.57
2018-12-16T22:37:19.923Z,14.47
2018-12-16T22:39:26.731Z,14.50
2018-12-16T22:41:37.382Z,14.17
2018-12-16T22:43:45.917Z,13.57
2018-12-16T22:45:53.517Z,13.07
2018-12-16T22:47:59.009Z,13.97
2018-12-16T22:50:05.988Z,15.00
2018-12-16T22:52:13.516Z,16.20
2018-12-16T22:54:18.889Z,19.87
2018-12-16T22:56:29.278Z,16.17
2018-12-16T22:58:36.016Z,16.23
2018-12-16T23:00:46.226Z,16.47
2018-12-16T23:02:51.785Z,16.27
2018-12-16T23:05:00.382Z,15.83
2018-12-16T23:07:09.219Z,14.73
2018-12-16T23:09:15.150Z,13.33
2018-12-16T23:11:20.637Z,13.30
2018-12-16T23:13:27.557Z,13.53
2018-12-16T23:15:34.548Z,12.97
2018-12-16T23:17:41.537Z,12.73
2018-12-16T23:19:51.295Z,12.53
2018-12-16T23:21:57.905Z,13.37
2018-12-16T23:24:05.129Z,13.00
2018-12-16T23:26:12.050Z,11.57
2018-12-16T23:28:19.608Z,13.13
2018-12-16T23:30:25.930Z,12.27
2018-12-16T23:32:31.750Z,12.70
2018-12-16T23:34:37.749Z,11.83
2018-12-16T23:36:42.308Z,12.73
2018-12-16T23:38:49.481Z,12.33
2018-12-16T23:40:53.874Z,13.87
2018-12-16T23:43:01.236Z,13.10
2018-12-16T23:45:08.553Z,13.63
2018-12-16T23:47:14.485Z,13.57
2018-12-16T23:49:21.181Z,13.67
2018-12-16T23:51:27.529Z,13.77
2018-12-16T23:53:34.936Z,13.20
2018-12-16T23:55:42.215Z,13.07
2018-12-16T23:57:51.730Z,14.30
2018-12-16T23:59:57.642Z,13.80
